Time;durP1;ratioP1;P1;durP2;ratioP2;P2;SDS_P1;SDS_P2;PMS_P1;PMS_P2;Temp;Humidity;BMP_temperature;BMP_pressure;BME280_temperature;BME280_humidity;BME280_pressure;Samples;Min_cycle;Max_cycle;Signal;HPM_P1;HPM_P2
2022/01/06 00:00:48;;;;;;;3.10;1.63;;;1.70;99.90;;;;;;5132990;22;20084;-78
2022/01/06 00:03:15;;;;;;;1.33;1.23;;;1.80;99.90;;;;;;5102872;28;20488;-78
2022/01/06 00:05:42;;;;;;;3.53;1.80;;;1.80;99.90;;;;;;5104878;28;20147;-78
2022/01/06 00:08:09;;;;;;;3.67;1.92;;;1.70;99.90;;;;;;5104283;28;20066;-78
2022/01/06 00:10:36;;;;;;;3.28;2.05;;;1.70;99.90;;;;;;5104256;28;20083;-78
2022/01/06 00:13:15;;;;;;;1.40;1.30;;;1.50;99.90;;;;;;5103394;28;20104;-78
2022/01/06 00:23:48;;;;;;;2.83;1.65;;;1.20;99.90;;;;;;5103282;28;20047;-78
2022/01/06 00:26:15;;;;;;;1.73;1.10;;;1.10;99.90;;;;;;5103748;28;20103;-78
2022/01/06 00:28:43;;;;;;;1.27;1.17;;;1.00;99.90;;;;;;5099309;28;20132;-79
2022/01/06 00:31:09;;;;;;;2.53;1.40;;;0.90;99.90;;;;;;5100483;28;20044;-79
2022/01/06 00:33:36;;;;;;;1.52;1.13;;;0.90;99.90;;;;;;5099615;28;20512;-78
2022/01/06 00:36:03;;;;;;;2.40;1.20;;;0.90;99.90;;;;;;5097068;28;20131;-78
2022/01/06 00:38:30;;;;;;;2.80;1.10;;;0.90;99.90;;;;;;5099034;28;20051;-78
2022/01/06 00:40:58;;;;;;;3.08;1.00;;;0.80;99.90;;;;;;5098660;28;20044;-79
2022/01/06 00:43:25;;;;;;;1.98;1.08;;;0.80;99.90;;;;;;5097249;28;20253;-79
2022/01/06 00:45:52;;;;;;;1.20;1.10;;;0.70;99.90;;;;;;5098068;28;20047;-76
2022/01/06 00:48:19;;;;;;;1.52;1.10;;;0.70;99.90;;;;;;5094991;28;20101;-77
2022/01/06 00:50:46;;;;;;;3.58;1.20;;;0.80;99.90;;;;;;5094874;28;20050;-76
2022/01/06 00:53:12;;;;;;;1.95;1.40;;;0.90;99.90;;;;;;5094896;28;20052;-76
2022/01/06 00:55:40;;;;;;;4.18;1.63;;;1.00;99.90;;;;;;5095451;28;20467;-77
2022/01/06 00:58:07;;;;;;;1.73;1.40;;;1.00;99.90;;;;;;5092873;28;20489;-76
2022/01/06 01:00:39;;;;;;;3.08;1.30;;;1.00;99.90;;;;;;5094592;28;20076;-77
2022/01/06 01:03:11;;;;;;;2.45;1.55;;;1.00;99.90;;;;;;5095658;28;20059;-76
2022/01/06 01:05:42;;;;;;;3.78;1.75;;;1.10;99.90;;;;;;5094729;28;20052;-76
2022/01/06 01:08:09;;;;;;;3.35;1.75;;;1.20;99.90;;;;;;5094962;28;20554;-76
2022/01/06 01:10:37;;;;;;;4.85;1.80;;;1.30;99.90;;;;;;5093820;28;20082;-76
2022/01/06 01:13:10;;;;;;;2.70;1.45;;;1.20;99.90;;;;;;5093692;28;20090;-76
2022/01/06 01:15:45;;;;;;;6.25;1.45;;;1.30;99.90;;;;;;5094542;28;20051;-76
2022/01/06 01:18:14;;;;;;;2.88;1.52;;;1.30;99.90;;;;;;5094732;28;20112;-77
2022/01/06 01:20:41;;;;;;;4.32;2.00;;;1.40;99.90;;;;;;5093598;28;20420;-76
2022/01/06 01:23:07;;;;;;;1.13;1.13;;;1.50;99.90;;;;;;5094313;28;20132;-75
2022/01/06 01:25:34;;;;;;;3.22;1.38;;;1.40;99.90;;;;;;5094724;28;20055;-76
2022/01/06 01:28:03;;;;;;;4.85;1.42;;;1.50;99.90;;;;;;5094678;28;20091;-77
2022/01/06 01:30:40;;;;;;;8.50;4.72;;;1.50;99.90;;;;;;5094605;28;20131;-77
2022/01/06 01:33:15;;;;;;;4.07;2.38;;;1.40;99.90;;;;;;5093376;28;20080;-78
2022/01/06 01:35:42;;;;;;;4.40;2.17;;;1.40;99.90;;;;;;5094925;28;20051;-77
2022/01/06 01:38:09;;;;;;;4.93;3.30;;;1.40;99.90;;;;;;5094487;28;20427;-76
2022/01/06 01:40:36;;;;;;;5.03;2.45;;;1.40;99.90;;;;;;5092893;28;20461;-77
2022/01/06 01:43:04;;;;;;;9.15;2.63;;;1.50;99.90;;;;;;5083925;22;20144;-76
2022/01/06 01:45:33;;;;;;;11.90;2.65;;;1.50;99.90;;;;;;5056664;28;20128;-79
2022/01/06 01:48:06;;;;;;;8.20;2.92;;;1.50;99.90;;;;;;5053935;28;20128;-79
2022/01/06 01:50:33;;;;;;;;;;;1.50;99.90;;;;;;5055606;28;20045;-79
2022/01/06 01:53:00;;;;;;;4.32;1.50;;;1.50;99.90;;;;;;5053597;28;19927;-76
2022/01/06 01:55:28;;;;;;;8.93;1.67;;;1.30;99.90;;;;;;5053771;28;20135;-76
2022/01/06 01:57:56;;;;;;;6.10;1.60;;;1.20;99.90;;;;;;5053687;28;20504;-77
2022/01/06 02:00:29;;;;;;;7.82;1.77;;;1.20;99.90;;;;;;5052553;28;20068;-76
2022/01/06 02:02:57;;;;;;;4.18;1.80;;;1.20;99.90;;;;;;5054210;28;20122;-76
2022/01/06 02:05:26;;;;;;;4.68;1.60;;;1.20;99.90;;;;;;5052112;28;20575;-76
2022/01/06 02:07:55;;;;;;;6.30;1.80;;;1.20;99.90;;;;;;5052396;28;20498;-76
2022/01/06 02:10:22;;;;;;;4.30;1.83;;;1.00;99.90;;;;;;5053256;28;20144;-76
2022/01/06 02:12:50;;;;;;;6.90;1.83;;;1.00;99.90;;;;;;5057784;28;20413;-76
2022/01/06 02:15:17;;;;;;;5.18;1.80;;;0.90;99.90;;;;;;5057227;28;20124;-76
2022/01/06 02:17:46;;;;;;;15.88;2.47;;;0.90;99.90;;;;;;5056780;28;20095;-76
2022/01/06 02:20:15;;;;;;;3.63;1.60;;;0.80;99.90;;;;;;5056941;28;20083;-76
2022/01/06 02:22:43;;;;;;;10.15;3.03;;;0.80;99.90;;;;;;5057162;28;20055;-76
2022/01/06 02:25:31;;;;;;;6.80;2.70;;;0.70;99.90;;;;;;5057742;28;20052;-76
2022/01/06 02:28:03;;;;;;;11.77;2.38;;;0.60;99.90;;;;;;5059327;28;20053;-76
2022/01/06 02:30:33;;;;;;;5.05;1.55;;;0.60;99.90;;;;;;5056291;28;20136;-76
2022/01/06 02:33:01;;;;;;;5.43;2.05;;;0.50;99.90;;;;;;5057150;28;20045;-77
2022/01/06 02:35:29;;;;;;;8.57;1.90;;;0.50;99.90;;;;;;5056583;28;20052;-77
2022/01/06 02:37:57;;;;;;;4.78;1.80;;;0.40;99.90;;;;;;5055476;28;20494;-77
2022/01/06 02:40:25;;;;;;;4.32;2.60;;;0.40;99.90;;;;;;5055273;28;20074;-76
2022/01/06 02:42:55;;;;;;;11.60;2.22;;;0.20;99.90;;;;;;5055448;28;20084;-77
2022/01/06 02:45:28;;;;;;;2.88;1.50;;;0.20;99.90;;;;;;5055153;28;20088;-77
2022/01/06 02:47:56;;;;;;;7.97;2.50;;;0.30;99.90;;;;;;5055804;28;20053;-77
2022/01/06 02:50:24;;;;;;;8.90;2.08;;;0.20;99.90;;;;;;5055441;28;20516;-76
2022/01/06 02:52:52;;;;;;;9.55;2.05;;;0.20;99.90;;;;;;5055113;28;20045;-77
2022/01/06 02:55:19;;;;;;;8.70;1.98;;;0.30;99.90;;;;;;5055354;28;20049;-78
2022/01/06 02:57:47;;;;;;;6.53;1.98;;;0.20;99.90;;;;;;5055027;28;20140;-76
2022/01/06 03:00:17;;;;;;;10.75;1.50;;;0.30;99.90;;;;;;5055683;28;20239;-76
2022/01/06 03:02:46;;;;;;;6.80;1.88;;;0.20;99.90;;;;;;5056021;28;20049;-76
2022/01/06 03:05:15;;;;;;;5.25;1.67;;;0.20;99.90;;;;;;5055724;28;20509;-77
2022/01/06 03:07:43;;;;;;;11.93;2.67;;;0.20;99.90;;;;;;5055803;28;20060;-76
2022/01/06 03:10:12;;;;;;;10.93;2.33;;;0.20;99.90;;;;;;5054257;28;20088;-77
2022/01/06 03:12:40;;;;;;;9.60;2.40;;;0.10;99.90;;;;;;5061035;28;20092;-76
2022/01/06 03:15:21;;;;;;;9.65;2.08;;;0.20;99.90;;;;;;5059493;28;20564;-76
2022/01/06 03:17:51;;;;;;;8.63;2.13;;;0.30;99.90;;;;;;5055776;28;20476;-76
2022/01/06 03:20:21;;;;;;;9.60;2.55;;;0.40;99.90;;;;;;5055995;28;20483;-76
2022/01/06 03:22:48;;;;;;;6.32;2.55;;;0.40;99.90;;;;;;5055293;28;20076;-76
2022/01/06 03:25:18;;;;;;;12.60;2.10;;;0.50;99.90;;;;;;5057787;28;20062;-76
2022/01/06 03:27:46;;;;;;;11.98;2.00;;;0.60;99.90;;;;;;5056460;28;20045;-76
2022/01/06 03:30:19;;;;;;;14.07;1.90;;;0.70;99.90;;;;;;5055811;28;20136;-76
2022/01/06 03:32:46;;;;;;;13.05;2.03;;;0.70;99.90;;;;;;5056408;28;20509;-76
2022/01/06 03:35:16;;;;;;;9.95;2.08;;;0.60;99.90;;;;;;5056691;28;20092;-77
2022/01/06 03:37:43;;;;;;;9.45;2.30;;;0.70;99.90;;;;;;5057380;28;20048;-76
2022/01/06 03:40:11;;;;;;;9.48;2.15;;;0.70;99.90;;;;;;5056933;28;20102;-76
2022/01/06 03:42:38;;;;;;;8.02;2.20;;;0.60;99.90;;;;;;5053773;28;20073;-76
2022/01/06 03:45:09;;;;;;;9.07;2.33;;;0.60;99.90;;;;;;5053794;28;20449;-76
2022/01/06 03:47:35;;;;;;;8.68;2.00;;;0.70;99.90;;;;;;5056323;28;20053;-77
2022/01/06 03:50:03;;;;;;;15.68;2.28;;;0.80;99.90;;;;;;5055513;28;20084;-78
2022/01/06 03:52:29;;;;;;;11.32;1.85;;;0.80;99.90;;;;;;5056520;28;20049;-78
2022/01/06 03:54:56;;;;;;;8.90;2.00;;;0.80;99.90;;;;;;5057820;28;20174;-78
2022/01/06 03:57:23;;;;;;;9.85;1.90;;;0.90;99.90;;;;;;5059592;28;20049;-79
2022/01/06 03:59:50;;;;;;;10.82;1.95;;;0.90;99.90;;;;;;5061365;28;20064;-78
2022/01/06 04:02:17;;;;;;;8.43;2.20;;;0.90;99.90;;;;;;5055141;28;20061;-78
2022/01/06 04:04:44;;;;;;;8.73;2.22;;;1.00;99.90;;;;;;5055871;28;20118;-76
2022/01/06 04:07:10;;;;;;;13.88;2.70;;;1.00;99.90;;;;;;5055038;28;20088;-76
2022/01/06 04:09:37;;;;;;;11.80;1.90;;;1.10;99.90;;;;;;5055831;28;20169;-76
2022/01/06 04:12:04;;;;;;;7.05;2.00;;;1.10;99.90;;;;;;5055463;28;20124;-79
2022/01/06 04:14:32;;;;;;;8.90;1.40;;;1.20;99.90;;;;;;5056404;28;20077;-77
2022/01/06 04:17:00;;;;;;;10.13;1.95;;;1.10;99.90;;;;;;5054901;28;20056;-78
2022/01/06 04:19:27;;;;;;;15.90;2.72;;;1.10;99.90;;;;;;5056021;28;20044;-76
2022/01/06 04:21:55;;;;;;;5.40;1.70;;;1.10;99.90;;;;;;5054240;28;20080;-77
2022/01/06 04:24:21;;;;;;;7.50;2.25;;;1.10;99.90;;;;;;5054012;28;20049;-76
2022/01/06 04:26:48;;;;;;;8.85;1.90;;;1.10;99.90;;;;;;5053604;28;20064;-76
2022/01/06 04:29:15;;;;;;;10.95;2.95;;;1.10;99.90;;;;;;5055730;28;20049;-78
2022/01/06 04:31:42;;;;;;;6.55;2.35;;;1.20;99.90;;;;;;5056327;28;20095;-78
2022/01/06 04:34:08;;;;;;;8.02;2.28;;;1.20;99.90;;;;;;5054905;28;20044;-79
2022/01/06 04:36:35;;;;;;;10.63;2.17;;;1.20;99.90;;;;;;5056066;28;20441;-79
2022/01/06 04:39:03;;;;;;;10.27;2.47;;;1.20;99.90;;;;;;5055759;28;20132;-79
2022/01/06 04:41:30;;;;;;;13.50;2.70;;;1.30;99.90;;;;;;5054346;28;20127;-79
2022/01/06 04:43:56;;;;;;;8.15;2.83;;;1.30;99.90;;;;;;5054698;28;20640;-78
2022/01/06 04:46:24;;;;;;;5.90;2.15;;;1.30;99.90;;;;;;5054785;28;20513;-79
2022/01/06 04:48:52;;;;;;;12.98;2.00;;;1.40;99.90;;;;;;5055099;28;20056;-78
2022/01/06 04:51:20;;;;;;;15.52;2.13;;;1.40;99.90;;;;;;5054319;28;20091;-78
2022/01/06 04:53:46;;;;;;;8.90;1.92;;;1.50;99.90;;;;;;5055288;28;20655;-78
2022/01/06 04:56:14;;;;;;;10.63;2.05;;;1.60;99.90;;;;;;5055087;28;20087;-78
2022/01/06 04:58:41;;;;;;;4.07;2.22;;;1.70;99.90;;;;;;5055528;28;20053;-78
2022/01/06 05:01:08;;;;;;;7.43;2.20;;;1.70;99.90;;;;;;5055304;28;20585;-78
2022/01/06 05:03:34;;;;;;;12.98;3.30;;;1.80;99.90;;;;;;5055459;28;20128;-78
2022/01/06 05:06:01;;;;;;;7.15;1.92;;;1.80;99.90;;;;;;5054736;28;20053;-78
2022/01/06 05:08:29;;;;;;;6.68;1.70;;;1.80;99.90;;;;;;5055661;28;20087;-79
2022/01/06 05:10:56;;;;;;;12.50;2.40;;;1.90;99.90;;;;;;5056357;28;20060;-78
2022/01/06 05:13:23;;;;;;;11.30;1.95;;;1.90;99.90;;;;;;5059142;28;20132;-78
2022/01/06 05:15:50;;;;;;;9.60;2.08;;;2.00;99.90;;;;;;5063809;28;20045;-79
2022/01/06 05:18:17;;;;;;;6.55;1.80;;;2.00;99.90;;;;;;5067178;28;20053;-79
2022/01/06 05:20:44;;;;;;;2.67;1.35;;;2.10;99.90;;;;;;5063466;28;20091;-78
2022/01/06 05:23:13;;;;;;;7.53;1.60;;;2.00;99.90;;;;;;5062271;28;20076;-77
2022/01/06 05:25:40;;;;;;;5.07;1.20;;;2.10;99.90;;;;;;5063524;28;20076;-78
2022/01/06 05:28:07;;;;;;;8.05;1.33;;;2.10;99.90;;;;;;5055904;28;20056;-76
2022/01/06 05:30:33;;;;;;;6.10;1.38;;;2.10;99.90;;;;;;5108659;22;20085;-80
2022/01/06 05:33:00;;;;;;;4.65;1.02;;;2.20;99.90;;;;;;5116222;28;20058;-82
2022/01/06 05:35:27;;;;;;;5.32;1.75;;;2.30;99.90;;;;;;5114437;28;20130;-82
2022/01/06 05:37:54;;;;;;;8.70;2.50;;;2.30;99.90;;;;;;5114088;28;20496;-82
2022/01/06 05:40:20;;;;;;;5.60;1.90;;;2.20;99.90;;;;;;5114163;28;20135;-82
2022/01/06 05:42:48;;;;;;;4.95;1.35;;;2.20;99.90;;;;;;5117179;22;20144;-79
2022/01/06 05:45:16;;;;;;;5.82;1.45;;;2.30;99.90;;;;;;5063902;28;20087;-79
2022/01/06 05:47:43;;;;;;;8.13;2.00;;;2.20;99.90;;;;;;5063255;28;20049;-79
2022/01/06 05:50:10;;;;;;;7.35;1.40;;;2.20;99.90;;;;;;5066566;28;20056;-79
2022/01/06 05:52:37;;;;;;;9.80;1.80;;;2.20;99.90;;;;;;5071722;28;20060;-79
2022/01/06 05:55:04;;;;;;;31.33;3.60;;;2.20;99.90;;;;;;5055228;28;20055;-78
2022/01/06 05:57:32;;;;;;;11.48;2.35;;;2.00;99.90;;;;;;5056114;28;20136;-78
2022/01/06 05:59:58;;;;;;;8.32;1.58;;;2.00;99.90;;;;;;5056010;28;20139;-78
2022/01/06 06:02:27;;;;;;;2.70;0.98;;;2.00;99.90;;;;;;5055697;28;20049;-79
2022/01/06 06:04:54;;;;;;;3.30;0.60;;;2.00;99.90;;;;;;5055100;28;20045;-79
2022/01/06 06:07:21;;;;;;;4.03;1.02;;;2.00;99.90;;;;;;5057225;28;20087;-79
2022/01/06 06:09:48;;;;;;;3.03;0.90;;;1.80;99.90;;;;;;5055732;28;20079;-79
2022/01/06 06:12:15;;;;;;;3.78;0.80;;;1.80;99.90;;;;;;5054474;28;20077;-78
2022/01/06 06:14:42;;;;;;;2.88;1.20;;;1.80;99.90;;;;;;5064529;28;20052;-79
2022/01/06 06:17:10;;;;;;;3.20;1.05;;;1.80;99.90;;;;;;5063053;28;20482;-78
2022/01/06 06:19:36;;;;;;;5.25;1.50;;;1.70;99.90;;;;;;5057613;28;20080;-79
2022/01/06 06:22:05;;;;;;;4.25;0.88;;;1.80;99.90;;;;;;5057050;28;20088;-79
2022/01/06 06:24:33;;;;;;;6.32;1.08;;;1.80;99.90;;;;;;5057180;28;20141;-79
2022/01/06 06:27:00;;;;;;;3.90;1.08;;;1.70;99.90;;;;;;5056954;28;20486;-79
2022/01/06 06:29:27;;;;;;;6.00;1.00;;;1.60;99.90;;;;;;5057565;28;20049;-78
2022/01/06 06:31:54;;;;;;;3.72;0.77;;;1.50;99.90;;;;;;5058306;28;20554;-79
2022/01/06 06:34:21;;;;;;;5.15;1.65;;;1.50;99.90;;;;;;5058367;28;20112;-79
2022/01/06 06:36:48;;;;;;;6.95;1.75;;;1.50;99.90;;;;;;5058337;28;20045;-79
2022/01/06 06:39:14;;;;;;;6.53;3.88;;;1.50;99.90;;;;;;5055036;28;20123;-77
2022/01/06 06:41:42;;;;;;;7.05;3.75;;;1.50;99.90;;;;;;5053515;28;20075;-76
2022/01/06 06:44:08;;;;;;;6.38;4.32;;;1.50;99.90;;;;;;5054664;28;20514;-76
2022/01/06 06:46:35;;;;;;;2.90;2.33;;;1.50;99.90;;;;;;5055570;28;20101;-78
2022/01/06 06:49:04;;;;;;;4.57;1.50;;;1.50;99.90;;;;;;5055549;28;20045;-77
2022/01/06 06:51:31;;;;;;;3.53;1.77;;;1.50;99.90;;;;;;5058746;28;20052;-79
2022/01/06 06:53:58;;;;;;;4.28;1.55;;;1.40;99.90;;;;;;5059437;28;20040;-79
2022/01/06 06:56:25;;;;;;;7.93;1.77;;;1.50;99.90;;;;;;5061301;28;20045;-79
2022/01/06 06:58:52;;;;;;;6.50;2.80;;;1.50;99.90;;;;;;5063171;28;20064;-79
2022/01/06 07:01:19;;;;;;;3.80;1.45;;;1.40;99.90;;;;;;5063282;28;20053;-80
2022/01/06 07:03:46;;;;;;;3.72;1.20;;;1.30;99.90;;;;;;5064025;28;20048;-78
2022/01/06 07:06:13;;;;;;;5.35;1.33;;;1.20;99.90;;;;;;5064712;28;20072;-79
2022/01/06 07:08:39;;;;;;;2.95;1.05;;;1.20;99.90;;;;;;5061556;28;20087;-80
2022/01/06 07:11:06;;;;;;;2.47;1.15;;;1.00;99.90;;;;;;5067185;28;20099;-79
2022/01/06 07:13:33;;;;;;;3.70;1.90;;;0.90;99.90;;;;;;5058669;28;20549;-79
2022/01/06 07:16:00;;;;;;;4.97;2.42;;;0.70;99.90;;;;;;5058364;28;20068;-79
2022/01/06 07:18:27;;;;;;;7.05;2.53;;;0.70;99.90;;;;;;5058126;28;20129;-79
2022/01/06 07:20:54;;;;;;;4.57;2.78;;;0.60;99.90;;;;;;5059861;28;20049;-79
2022/01/06 07:25:48;;;;;;;3.15;1.17;;;0.50;99.90;;;;;;5095106;28;20052;-83
2022/01/06 07:28:15;;;;;;;4.32;1.20;;;0.40;99.90;;;;;;5097378;28;20135;-83
2022/01/06 07:30:42;;;;;;;4.78;1.33;;;0.30;99.90;;;;;;5078999;28;20564;-83
2022/01/06 07:33:09;;;;;;;3.03;1.73;;;0.30;99.90;;;;;;5078841;28;20050;-83
2022/01/06 07:35:36;;;;;;;2.20;1.30;;;0.10;99.90;;;;;;5079438;28;20142;-83
2022/01/06 07:38:02;;;;;;;12.98;6.30;;;0.00;99.90;;;;;;5118539;22;20111;-82
2022/01/06 07:40:29;;;;;;;18.90;11.95;;;-0.10;99.90;;;;;;5140176;27;20547;-83
2022/01/06 07:42:56;;;;;;;7.30;3.78;;;-0.20;99.90;;;;;;5139844;27;20121;-81
2022/01/06 07:45:22;;;;;;;7.63;3.67;;;-0.30;99.90;;;;;;5140216;27;20126;-82
2022/01/06 07:47:58;;;;;;;13.48;6.13;;;-0.30;99.90;;;;;;5138085;27;20118;-82
2022/01/06 07:50:30;;;;;;;11.85;6.78;;;-0.40;99.90;;;;;;5138398;27;20126;-82
2022/01/06 07:52:57;;;;;;;7.63;4.35;;;-0.50;99.90;;;;;;5139227;27;20051;-82
2022/01/06 07:55:25;;;;;;;6.53;3.08;;;-0.50;99.90;;;;;;5139568;27;20137;-82
2022/01/06 07:57:54;;;;;;;6.68;3.63;;;-0.60;99.90;;;;;;5138715;27;20085;-82
2022/01/06 08:00:21;;;;;;;6.35;3.97;;;-0.70;99.90;;;;;;5137394;27;20487;-82
2022/01/06 08:02:48;;;;;;;2.50;1.48;;;-0.80;99.90;;;;;;5137351;27;20094;-82
2022/01/06 08:05:15;;;;;;;8.85;3.45;;;-0.80;99.90;;;;;;5136818;27;20051;-82
2022/01/06 08:07:42;;;;;;;6.57;2.63;;;-0.90;99.90;;;;;;5136769;27;20057;-82
2022/01/06 08:10:10;;;;;;;9.57;4.63;;;-0.90;99.90;;;;;;5138270;27;20446;-82
2022/01/06 08:12:37;;;;;;;5.95;3.22;;;-0.90;99.90;;;;;;5136658;27;20122;-82
2022/01/06 08:15:05;;;;;;;7.07;1.75;;;-1.00;99.90;;;;;;5136829;27;20055;-82
2022/01/06 08:17:32;;;;;;;8.30;2.20;;;-0.90;99.90;;;;;;5137548;27;20130;-81
2022/01/06 08:19:58;;;;;;;6.30;3.25;;;-0.90;99.90;;;;;;5136360;27;20083;-81
2022/01/06 08:22:25;;;;;;;14.50;4.38;;;-0.90;99.90;;;;;;5137891;27;20043;-82
2022/01/06 08:24:52;;;;;;;19.05;6.43;;;-0.90;99.90;;;;;;5135834;27;20047;-82
2022/01/06 08:27:19;;;;;;;9.95;5.40;;;-1.00;99.90;;;;;;5135474;27;20051;-82
2022/01/06 08:29:46;;;;;;;9.38;5.40;;;-1.00;99.90;;;;;;5135834;27;20534;-82
2022/01/06 08:32:14;;;;;;;9.20;5.03;;;-1.20;99.90;;;;;;5137382;27;20511;-82
2022/01/06 08:34:41;;;;;;;7.32;4.15;;;-1.30;99.90;;;;;;5137198;27;20126;-82
2022/01/06 08:37:08;;;;;;;3.60;2.40;;;-1.20;99.90;;;;;;5135474;27;20069;-82
2022/01/06 08:39:35;;;;;;;9.18;3.70;;;-1.30;99.90;;;;;;5135654;27;20061;-82
2022/01/06 08:42:02;;;;;;;7.47;4.70;;;-1.30;99.90;;;;;;5135422;27;20471;-82
2022/01/06 08:44:29;;;;;;;6.55;3.67;;;-1.40;99.90;;;;;;5134778;27;20086;-81
2022/01/06 08:46:56;;;;;;;5.25;3.40;;;-1.40;99.90;;;;;;5136121;27;20047;-82
2022/01/06 08:49:23;;;;;;;12.90;4.95;;;-1.40;99.90;;;;;;5136177;27;20426;-81
2022/01/06 08:51:50;;;;;;;11.80;5.03;;;-1.40;99.90;;;;;;5138546;27;20126;-82
2022/01/06 08:54:16;;;;;;;11.63;5.43;;;-1.30;99.90;;;;;;5140164;27;20403;-82
2022/01/06 08:56:43;;;;;;;11.73;5.63;;;-1.30;99.90;;;;;;5138862;27;20173;-82
2022/01/06 08:59:10;;;;;;;14.10;4.47;;;-1.30;99.90;;;;;;5138617;27;20082;-81
2022/01/06 09:01:37;;;;;;;8.63;3.53;;;-1.30;99.90;;;;;;5136779;27;20531;-82
2022/01/06 09:04:04;;;;;;;11.13;3.83;;;-1.30;99.90;;;;;;5136691;27;20059;-82
2022/01/06 09:06:31;;;;;;;14.50;4.40;;;-1.10;99.90;;;;;;5137882;27;20075;-82
2022/01/06 09:08:57;;;;;;;10.27;4.65;;;-1.10;99.90;;;;;;5136278;27;20078;-82
2022/01/06 09:11:24;;;;;;;19.15;8.23;;;-1.20;99.90;;;;;;5136377;27;20479;-82
2022/01/06 09:13:51;;;;;;;23.85;11.23;;;-1.10;99.90;;;;;;5135516;27;20125;-82
2022/01/06 09:16:17;;;;;;;31.25;11.20;;;-1.10;99.90;;;;;;5136844;27;20051;-82
2022/01/06 09:18:44;;;;;;;32.92;12.85;;;-1.10;99.90;;;;;;5135288;27;20537;-82
2022/01/06 09:21:11;;;;;;;32.45;13.93;;;-1.20;99.90;;;;;;5136900;27;20047;-82
2022/01/06 09:23:39;;;;;;;41.45;20.92;;;-1.20;99.90;;;;;;5137019;27;20130;-82
2022/01/06 09:26:06;;;;;;;32.35;14.90;;;-1.20;99.90;;;;;;5137892;27;20107;-81
2022/01/06 09:28:37;;;;;;;26.75;13.85;;;-1.10;99.90;;;;;;5134976;27;20079;-81
2022/01/06 09:31:03;;;;;;;22.35;11.60;;;-1.10;99.90;;;;;;5136309;27;20131;-81
2022/01/06 09:33:30;;;;;;;20.42;9.55;;;-1.20;99.90;;;;;;5135953;27;20100;-81
2022/01/06 09:35:57;;;;;;;15.90;8.65;;;-1.10;99.90;;;;;;5136369;27;20056;-82
2022/01/06 09:38:24;;;;;;;13.90;7.15;;;-1.10;99.90;;;;;;5135624;27;20104;-82
2022/01/06 09:40:50;;;;;;;15.82;8.57;;;-1.10;99.90;;;;;;5135577;27;20138;-82
2022/01/06 09:43:24;;;;;;;26.65;16.85;;;-1.20;99.90;;;;;;5135958;27;20075;-82
2022/01/06 09:45:51;;;;;;;38.55;17.63;;;-1.20;99.90;;;;;;5136872;27;20043;-82
2022/01/06 09:48:22;;;;;;;17.20;9.63;;;-1.10;99.90;;;;;;5135342;27;20050;-82
2022/01/06 09:50:49;;;;;;;14.93;8.40;;;-1.20;99.90;;;;;;5134978;27;20133;-81
2022/01/06 09:53:17;;;;;;;21.33;15.70;;;-1.10;99.90;;;;;;5134111;28;20047;-82
2022/01/06 09:55:44;;;;;;;42.90;23.40;;;-1.00;99.90;;;;;;5135793;27;20130;-81
2022/01/06 09:58:11;;;;;;;9.40;5.22;;;-1.00;99.90;;;;;;5134981;28;20082;-82
2022/01/06 10:00:38;;;;;;;3.58;1.25;;;-1.00;99.90;;;;;;5134466;28;20078;-81
2022/01/06 10:03:07;;;;;;;2.15;0.80;;;-0.80;99.90;;;;;;5134308;28;20082;-82
2022/01/06 10:05:49;;;;;;;3.38;1.05;;;-0.70;99.90;;;;;;5139501;28;20051;-81
2022/01/06 10:08:27;;;;;;;2.53;0.60;;;-0.50;99.90;;;;;;5138725;28;20051;-82
2022/01/06 10:11:13;;;;;;;2.20;0.70;;;-0.50;99.90;;;;;;5138823;28;20426;-83
2022/01/06 10:13:43;;;;;;;3.17;0.82;;;-0.40;99.90;;;;;;5137788;28;20099;-82
2022/01/06 10:16:18;;;;;;;4.10;0.70;;;-0.20;99.90;;;;;;5139414;28;20130;-83
2022/01/06 10:19:10;;;;;;;3.63;0.80;;;0.00;99.90;;;;;;5137673;28;20454;-83
2022/01/06 10:21:48;;;;;;;6.93;1.15;;;0.10;99.90;;;;;;5137716;28;20126;-83
2022/01/06 10:24:17;;;;;;;3.53;0.90;;;0.20;99.90;;;;;;5139099;28;20551;-82
2022/01/06 10:26:56;;;;;;;9.32;0.93;;;0.30;99.90;;;;;;5137211;28;20130;-82
2022/01/06 10:29:26;;;;;;;15.93;3.35;;;0.30;99.90;;;;;;5138572;28;20074;-82
2022/01/06 10:32:02;;;;;;;31.90;3.45;;;0.20;99.90;;;;;;5137919;27;20475;-82
2022/01/06 10:34:33;;;;;;;23.15;2.50;;;0.10;99.90;;;;;;5142160;27;20130;-82
2022/01/06 10:37:01;;;;;;;10.57;1.92;;;0.10;99.90;;;;;;5141254;27;20415;-82
2022/01/06 10:39:45;;;;;;;5.28;1.30;;;0.10;99.90;;;;;;5140197;27;20055;-83
2022/01/06 10:42:12;;;;;;;8.13;1.50;;;0.10;99.90;;;;;;5141509;27;20467;-82
2022/01/06 10:44:57;;;;;;;5.68;1.15;;;0.00;99.90;;;;;;5140964;27;20134;-83
2022/01/06 10:47:38;;;;;;;15.43;1.77;;;-0.10;99.90;;;;;;5139156;27;20134;-82
2022/01/06 10:50:13;;;;;;;7.15;1.42;;;-0.20;99.90;;;;;;5139379;27;20134;-82
2022/01/06 10:52:53;;;;;;;8.50;1.83;;;-0.10;99.90;;;;;;5138715;27;20095;-83
2022/01/06 10:55:26;;;;;;;20.05;2.80;;;0.00;99.90;;;;;;5139856;27;20074;-82
2022/01/06 10:57:57;;;;;;;15.65;1.63;;;0.20;99.90;;;;;;5138801;27;20484;-82
2022/01/06 11:00:29;;;;;;;0.95;0.50;;;0.20;99.90;;;;;;5139874;27;20043;-82
2022/01/06 11:03:15;;;;;;;3.53;0.63;;;0.60;99.90;;;;;;5139544;27;20100;-81
2022/01/06 11:05:45;;;;;;;2.88;0.73;;;0.80;99.90;;;;;;5138009;27;20050;-81
2022/01/06 11:08:17;;;;;;;6.47;1.27;;;1.00;99.90;;;;;;5137922;27;20043;-82
2022/01/06 11:10:49;;;;;;;1.52;0.70;;;1.10;99.90;;;;;;5139209;27;20057;-82
2022/01/06 11:13:17;;;;;;;3.75;0.65;;;1.10;99.90;;;;;;5138772;27;20142;-82
2022/01/06 11:15:44;;;;;;;1.42;0.90;;;1.20;99.90;;;;;;5138830;27;20078;-82
2022/01/06 11:18:19;;;;;;;1.83;0.75;;;1.40;99.90;;;;;;5137356;27;20578;-82
2022/01/06 11:20:46;;;;;;;2.30;0.60;;;1.90;99.90;;;;;;5138458;27;20047;-83
2022/01/06 11:23:22;;;;;;;3.53;0.77;;;2.40;99.90;;;;;;5137225;27;20051;-82
2022/01/06 11:26:13;;;;;;;2.35;0.60;;;2.90;99.90;;;;;;5137048;27;20051;-82
2022/01/06 11:28:41;;;;;;;1.90;0.60;;;3.50;99.90;;;;;;5137126;27;20129;-82
2022/01/06 11:31:15;;;;;;;1.80;0.55;;;3.70;99.90;;;;;;5136929;27;20126;-81
2022/01/06 11:33:44;;;;;;;4.25;0.68;;;3.90;99.90;;;;;;5136602;27;20047;-81
2022/01/06 11:36:21;;;;;;;33.28;20.60;;;5.30;99.90;;;;;;5136058;27;20126;-83
2022/01/06 11:38:50;;;;;;;2.50;2.10;;;6.10;99.90;;;;;;5137549;27;20043;-81
2022/01/06 11:41:17;;;;;;;2.78;0.90;;;7.20;98.50;;;;;;5137678;27;20093;-82
2022/01/06 11:43:47;;;;;;;1.90;0.82;;;8.80;97.40;;;;;;5141249;27;20097;-81
2022/01/06 11:46:14;;;;;;;1.15;0.50;;;10.50;89.00;;;;;;5141377;27;20388;-83
2022/01/06 11:48:49;;;;;;;1.83;0.63;;;9.70;80.90;;;;;;5140260;27;20043;-83
2022/01/06 11:51:23;;;;;;;1.17;0.63;;;11.00;81.00;;;;;;5141135;27;20141;-81
2022/01/06 11:53:50;;;;;;;2.28;0.60;;;10.50;78.70;;;;;;5139696;27;20055;-83
2022/01/06 11:56:17;;;;;;;0.98;0.70;;;10.30;81.70;;;;;;5140029;27;20104;-81
2022/01/06 11:58:55;;;;;;;1.67;0.40;;;10.90;81.00;;;;;;5139300;27;20044;-84
2022/01/06 12:01:22;;;;;;;1.05;0.40;;;10.30;73.30;;;;;;5140881;27;20077;-82
2022/01/06 12:03:50;;;;;;;1.08;0.60;;;9.50;77.50;;;;;;5139127;27;20047;-82
2022/01/06 12:06:28;;;;;;;5.45;0.60;;;8.10;82.10;;;;;;5139640;27;20051;-83
2022/01/06 12:08:56;;;;;;;0.98;0.40;;;7.40;83.90;;;;;;5140681;27;20142;-83
2022/01/06 12:11:26;;;;;;;0.38;0.38;;;7.60;83.80;;;;;;5138453;27;20047;-82
2022/01/06 12:13:55;;;;;;;4.32;0.60;;;8.30;82.50;;;;;;5139387;27;20070;-83
2022/01/06 12:16:36;;;;;;;2.80;0.80;;;8.60;79.10;;;;;;5137929;27;20082;-84
2022/01/06 12:19:18;;;;;;;1.00;0.35;;;8.70;79.60;;;;;;5137625;27;20050;-82
2022/01/06 12:21:46;;;;;;;2.15;0.40;;;8.20;78.20;;;;;;5139027;27;20254;-83
2022/01/06 12:24:16;;;;;;;2.30;0.40;;;7.30;83.40;;;;;;5139044;27;20078;-83
2022/01/06 12:26:44;;;;;;;3.40;1.25;;;6.70;85.70;;;;;;5137248;27;20055;-82
2022/01/06 12:29:25;;;;;;;2.75;0.50;;;5.60;90.50;;;;;;5137260;27;20107;-82
2022/01/06 12:32:03;;;;;;;1.40;0.40;;;4.90;93.60;;;;;;5137031;27;20049;-83
2022/01/06 12:34:30;;;;;;;0.68;0.40;;;4.50;94.90;;;;;;5136590;27;20538;-81
2022/01/06 12:36:56;;;;;;;4.38;0.40;;;4.20;95.70;;;;;;5136470;27;20135;-83
2022/01/06 12:39:23;;;;;;;0.77;0.30;;;4.10;98.00;;;;;;5135961;27;20477;-82
2022/01/06 12:41:52;;;;;;;1.27;0.55;;;3.80;98.60;;;;;;5137645;27;20051;-82
2022/01/06 12:44:25;;;;;;;1.65;0.68;;;3.60;99.90;;;;;;5137239;27;20495;-82
2022/01/06 12:46:52;;;;;;;0.60;0.32;;;3.30;99.90;;;;;;5137454;27;20129;-82
2022/01/06 12:49:23;;;;;;;3.90;0.50;;;3.20;99.90;;;;;;5135575;27;20130;-81
2022/01/06 12:51:51;;;;;;;4.28;0.60;;;3.00;99.90;;;;;;5140628;27;20129;-82
2022/01/06 12:54:20;;;;;;;0.95;0.40;;;2.70;99.90;;;;;;5138734;27;20070;-82
2022/01/06 12:56:57;;;;;;;0.50;0.25;;;2.70;99.90;;;;;;5140164;27;20129;-82
2022/01/06 12:59:34;;;;;;;1.30;0.50;;;2.60;99.90;;;;;;5138557;27;20089;-82
2022/01/06 13:02:12;;;;;;;1.85;0.40;;;2.50;99.90;;;;;;5128421;27;20070;-81
2022/01/06 13:04:48;;;;;;;0.95;0.40;;;2.40;99.90;;;;;;5125051;27;20051;-82
2022/01/06 13:07:16;;;;;;;1.23;0.50;;;2.40;99.90;;;;;;5114781;28;20071;-82
2022/01/06 13:09:44;;;;;;;2.65;0.80;;;2.30;99.90;;;;;;5115549;28;20048;-82
2022/01/06 13:12:24;;;;;;;5.00;0.90;;;2.20;99.90;;;;;;5116930;28;20047;-82